Michigantown, Indiana
Current Conditions -  °F | °C
As of 11:35 PM on Tuesday 21 Oct 2014 (Local Time) from KFKR Reporting Station
Clear Clear  
Wind Chill: 39°   Ceiling: Unl
Heat Index: 42°   Visibility: 10mi
Dew Point: 40°   Wind: 5mph
Humidity: 91%   Direction: 330°NNW
Pressure: 30.24"   Gusts: NA
Location:  40.33°N, 86.39°W
Report Text: KFKR 220335Z AUTO 33004KT 10SM CLR 06/04 A3024 RMK AO2 T00550042
Loading
Personal Weather Stations






























Interactive Weather Map
Tropical Storm Tracking
New forecast layout! Learn more

10-Day Weather Forecast

Advertisements
Track Severe Weather on mobile